Choctaw Beach, Florida
Current Conditions -  °F | °C
As of 5:55 AM on Sunday 23 Nov 2014 (Local Time) from KVPS Reporting Station
Light Rain Light Rain  
Wind Chill: 67°   Ceiling: 500
Heat Index: 67°   Visibility: 4mi
Dew Point: 66°   Wind: 12mph
Humidity: 97%   Direction: 130°SE
Pressure: 29.84"   Gusts: NA
Location:  30.5136°N, 86.4378°W
Report Text: KVPS 231155Z 13010KT 4SM -RA BR OVC005 19/19 A2984 RMK AO2A SLP111 P0000 60004 70036 T01920187 10193 20171 56010 $
Loading
Personal Weather Stations






























Interactive Weather Map New forecast layout! Learn more

10-Day Weather Forecast

Advertisements
Track Severe Weather on mobile